Time;durP1;ratioP1;P1;durP2;ratioP2;P2;SDS_P1;SDS_P2;PMS_P1;PMS_P2;Temp;Humidity;BMP_temperature;BMP_pressure;BME280_temperature;BME280_humidity;BME280_pressure;Samples;Min_cycle;Max_cycle;Signal;HPM_P1;HPM_P2
2022/07/24 00:06:02;;;;;;;11.05;7.50;;;;;;;21.61;90.86;100631.06;20922105;28;20117;-83
2022/07/24 00:16:03;;;;;;;8.63;6.13;;;;;;;21.41;84.58;100640.16;20924745;28;20056;-82
2022/07/24 00:26:05;;;;;;;9.13;6.00;;;;;;;21.29;88.49;100648.84;20927795;28;20052;-82
2022/07/24 00:36:06;;;;;;;8.90;6.63;;;;;;;21.08;88.89;100627.81;20922713;28;20048;-82
2022/07/24 00:46:07;;;;;;;8.57;6.07;;;;;;;21.02;86.49;100626.31;20919412;28;20124;-82
2022/07/24 00:56:09;;;;;;;9.60;5.55;;;;;;;20.46;88.63;100624.06;20916837;28;20144;-80
2022/07/24 01:06:10;;;;;;;8.05;5.30;;;;;;;20.31;90.61;100630.16;20924380;28;20060;-80
2022/07/24 01:16:12;;;;;;;10.98;6.10;;;;;;;20.39;90.60;100634.16;20943702;28;20053;-80
2022/07/24 01:26:16;;;;;;;8.93;6.10;;;;;;;19.96;96.72;100635.50;20903827;28;20059;-80
2022/07/24 01:36:17;;;;;;;10.77;6.57;;;;;;;19.64;96.31;100638.00;20896065;28;20450;-80
2022/07/24 01:46:18;;;;;;;9.90;6.25;;;;;;;19.61;95.10;100630.19;20910964;28;20454;-80
2022/07/24 01:56:20;;;;;;;9.00;6.22;;;;;;;19.43;99.72;100642.53;20917017;28;20471;-80
2022/07/24 02:06:22;;;;;;;9.07;5.97;;;;;;;19.30;98.75;100635.22;20932088;28;20416;-80
2022/07/24 02:16:27;;;;;;;11.95;6.50;;;;;;;19.34;96.37;100631.47;20933839;28;20056;-80
2022/07/24 02:26:28;;;;;;;11.57;6.03;;;;;;;19.15;98.30;100644.78;20913480;28;20084;-80
2022/07/24 02:36:30;;;;;;;10.35;6.30;;;;;;;19.05;97.76;100631.09;20926709;28;20125;-80
2022/07/24 02:46:31;;;;;;;10.38;6.40;;;;;;;19.09;97.31;100639.75;20928391;28;20059;-80
2022/07/24 02:56:36;;;;;;;8.82;5.78;;;;;;;18.86;98.42;100646.13;20918383;28;20075;-80
2022/07/24 03:06:37;;;;;;;10.18;5.90;;;;;;;18.80;98.63;100657.03;20925789;28;20049;-80
2022/07/24 03:16:39;;;;;;;9.25;6.32;;;;;;;18.60;100.00;100650.81;20908785;28;20496;-80
2022/07/24 03:26:40;;;;;;;9.30;6.05;;;;;;;18.56;100.00;100654.53;20914154;28;20455;-80
2022/07/24 03:36:42;;;;;;;9.38;5.72;;;;;;;18.63;99.85;100655.97;20924359;28;20500;-80
2022/07/24 03:46:43;;;;;;;8.80;6.38;;;;;;;18.75;100.00;100659.91;20924571;28;20140;-80
2022/07/24 03:56:45;;;;;;;10.55;6.13;;;;;;;18.76;100.00;100655.44;20907044;28;20143;-80
2022/07/24 04:06:46;;;;;;;9.18;6.43;;;;;;;18.88;99.98;100663.72;20929700;28;20041;-80
2022/07/24 04:16:48;;;;;;;9.48;6.72;;;;;;;18.91;100.00;100681.28;20912158;28;20079;-80
2022/07/24 04:26:49;;;;;;;11.05;6.90;;;;;;;18.99;100.00;100679.16;20915337;28;20053;-80
2022/07/24 04:36:51;;;;;;;9.70;7.78;;;;;;;18.75;100.00;100696.19;20906777;28;20048;-80
2022/07/24 04:46:55;;;;;;;10.55;6.70;;;;;;;18.99;100.00;100695.06;20907432;28;20049;-80
2022/07/24 04:57:03;;;;;;;10.93;6.70;;;;;;;19.55;100.00;100694.19;20920489;28;20479;-80
2022/07/24 05:07:05;;;;;;;9.68;6.28;;;;;;;19.54;100.00;100702.22;20926505;28;20051;-80
2022/07/24 05:17:06;;;;;;;9.85;6.82;;;;;;;19.69;98.21;100707.72;20928768;28;20045;-80
2022/07/24 05:27:07;;;;;;;10.75;7.20;;;;;;;19.81;96.51;100706.25;20914221;28;20049;-80
2022/07/24 05:37:13;;;;;;;8.95;6.63;;;;;;;20.07;93.28;100706.72;20937185;28;20067;-80
2022/07/24 05:47:14;;;;;;;8.93;6.22;;;;;;;20.29;89.50;100709.19;20940693;28;20064;-80
2022/07/24 05:57:15;;;;;;;8.95;5.95;;;;;;;20.52;86.00;100692.94;20939352;28;20132;-80
2022/07/24 06:07:17;;;;;;;8.32;6.00;;;;;;;20.73;81.48;100699.75;20965638;28;20049;-80
2022/07/24 06:17:20;;;;;;;10.43;5.80;;;;;;;20.94;81.08;100704.91;20943974;28;20087;-80
2022/07/24 06:27:22;;;;;;;9.03;6.00;;;;;;;21.16;78.65;100702.75;20937063;28;20136;-80
2022/07/24 06:37:23;;;;;;;8.85;6.13;;;;;;;21.35;77.80;100712.44;20943977;28;20041;-80
2022/07/24 06:47:25;;;;;;;8.23;5.15;;;;;;;21.68;77.77;100713.22;20948718;28;20051;-80
2022/07/24 06:57:27;;;;;;;9.60;6.55;;;;;;;21.86;73.50;100710.44;20937758;23;20632;-78
2022/07/24 07:07:28;;;;;;;10.50;6.53;;;;;;;22.25;73.92;100696.63;20952411;28;20131;-78
2022/07/24 07:17:30;;;;;;;9.50;6.40;;;;;;;22.59;69.28;100698.09;20944583;28;20419;-79
2022/07/24 07:27:31;;;;;;;9.20;6.00;;;;;;;22.91;67.71;100693.50;20890028;28;20045;-78
2022/07/24 07:37:32;;;;;;;8.60;6.07;;;;;;;22.95;67.46;100687.00;20882771;28;20088;-77
2022/07/24 07:47:34;;;;;;;9.10;5.95;;;;;;;23.27;64.10;100665.38;20904308;28;20048;-78
2022/07/24 07:57:35;;;;;;;9.18;6.03;;;;;;;23.52;61.66;100673.56;20904462;28;20057;-78
2022/07/24 08:07:57;;;;;;;12.75;6.88;;;;;;;23.83;59.38;100679.56;20903673;28;20097;-79
2022/07/24 08:17:58;;;;;;;8.50;6.07;;;;;;;24.37;58.96;100684.84;20902469;28;20053;-79
2022/07/24 08:27:59;;;;;;;9.45;5.95;;;;;;;24.30;56.38;100672.84;20901040;28;20055;-78
2022/07/24 08:38:01;;;;;;;12.40;6.90;;;;;;;24.67;54.90;100671.13;20900937;28;20059;-79
2022/07/24 08:48:02;;;;;;;9.77;6.47;;;;;;;24.95;53.09;100670.03;20915908;28;20051;-78
2022/07/24 08:58:03;;;;;;;8.45;6.15;;;;;;;25.16;50.65;100667.69;20983730;28;20045;-78
2022/07/24 09:08:05;;;;;;;8.38;5.93;;;;;;;25.63;49.99;100668.69;20994810;28;20056;-78
2022/07/24 09:18:06;;;;;;;7.72;6.20;;;;;;;25.67;50.30;100651.41;21001165;28;20432;-79
2022/07/24 09:28:08;;;;;;;8.90;6.10;;;;;;;26.47;48.44;100648.06;20995172;28;20076;-78
2022/07/24 09:38:15;;;;;;;9.35;6.57;;;;;;;26.49;47.63;100638.88;20915391;28;20059;-77
2022/07/24 09:48:17;;;;;;;10.00;6.28;;;;;;;26.98;47.47;100629.63;20915545;28;20063;-78
2022/07/24 09:58:18;;;;;;;7.88;5.68;;;;;;;27.44;44.46;100631.25;20947747;28;20489;-77
2022/07/24 10:08:19;;;;;;;7.95;5.90;;;;;;;28.21;43.50;100616.75;20994464;28;20048;-77
2022/07/24 10:18:22;;;;;;;8.30;5.18;;;;;;;28.03;42.27;100616.50;20964839;28;20063;-76
2022/07/24 10:28:26;;;;;;;9.73;6.80;;;;;;;28.59;40.22;100598.13;20913102;28;20512;-75
2022/07/24 10:38:27;;;;;;;6.55;4.65;;;;;;;28.27;38.14;100608.16;20908769;28;20045;-77
2022/07/24 10:48:30;;;;;;;10.65;5.10;;;;;;;28.43;36.64;100592.38;20917977;28;20472;-75
2022/07/24 10:58:32;;;;;;;9.07;5.23;;;;;;;28.40;37.41;100571.09;20946832;28;20071;-75
2022/07/24 11:08:33;;;;;;;6.60;4.53;;;;;;;28.23;36.86;100571.69;20975385;28;20432;-75
2022/07/24 11:18:35;;;;;;;7.55;4.50;;;;;;;28.54;35.71;100559.09;20991534;28;20500;-76
2022/07/24 11:28:42;;;;;;;5.55;4.30;;;;;;;29.30;35.11;100548.66;20977722;28;20045;-76
2022/07/24 11:38:43;;;;;;;5.38;4.03;;;;;;;29.19;34.06;100532.63;20945831;28;20051;-75
2022/07/24 11:48:44;;;;;;;7.22;4.35;;;;;;;29.52;33.68;100515.16;20954157;28;20140;-76
2022/07/24 11:58:46;;;;;;;8.27;4.75;;;;;;;29.23;34.20;100501.69;20986190;28;20051;-76
2022/07/24 12:08:47;;;;;;;7.13;4.70;;;;;;;29.27;34.47;100485.06;20986543;28;20053;-76
2022/07/24 12:18:48;;;;;;;6.10;4.85;;;;;;;29.51;33.96;100481.91;20935347;28;20056;-76
2022/07/24 12:28:50;;;;;;;8.15;4.60;;;;;;;30.03;34.89;100460.78;20976501;28;20056;-76
2022/07/24 12:38:51;;;;;;;5.80;4.65;;;;;;;29.88;34.69;100457.72;20943591;28;20048;-77
2022/07/24 12:48:53;;;;;;;8.13;4.93;;;;;;;30.17;35.06;100443.28;20944425;28;20454;-77
2022/07/24 12:58:54;;;;;;;7.90;4.45;;;;;;;30.07;33.78;100429.78;20922061;28;20041;-76
2022/07/24 13:08:55;;;;;;;6.43;4.72;;;;;;;30.05;35.55;100421.00;20974665;28;20416;-75
2022/07/24 13:18:57;;;;;;;8.93;5.55;;;;;;;30.13;35.00;100409.47;20963970;28;20055;-75
2022/07/24 13:28:58;;;;;;;6.15;4.60;;;;;;;30.40;35.44;100398.66;20935141;28;20128;-75
2022/07/24 13:39:00;;;;;;;7.30;4.72;;;;;;;30.56;34.09;100392.56;20925593;28;20144;-75
2022/07/24 13:49:01;;;;;;;6.93;5.30;;;;;;;30.81;33.53;100369.38;20947041;28;20481;-75
2022/07/24 13:59:03;;;;;;;8.20;4.93;;;;;;;30.76;35.23;100360.88;20939814;28;20057;-75
2022/07/24 14:09:07;;;;;;;6.15;4.70;;;;;;;30.66;33.89;100342.00;20921360;28;20440;-74
2022/07/24 14:19:09;;;;;;;;;;;;;;;30.95;33.73;100323.81;20913729;28;20045;-74
2022/07/24 14:29:10;;;;;;;7.82;4.88;;;;;;;31.00;33.50;100311.56;20927471;28;20041;-73
2022/07/24 14:39:11;;;;;;;9.25;4.65;;;;;;;31.35;32.00;100307.06;20961354;28;20408;-74
2022/07/24 14:49:13;;;;;;;10.40;4.65;;;;;;;31.03;32.58;100286.03;20909576;28;20516;-74
2022/07/24 14:59:14;;;;;;;8.45;5.30;;;;;;;31.21;32.28;100281.41;20907802;28;20072;-75
2022/07/24 15:09:20;;;;;;;6.43;5.13;;;;;;;31.09;33.17;100258.34;20824734;28;20061;-74
2022/07/24 15:19:21;;;;;;;7.55;5.68;;;;;;;31.26;32.07;100249.31;20824183;28;20056;-74
2022/07/24 15:29:23;;;;;;;7.07;5.18;;;;;;;31.32;33.07;100231.63;20823684;28;20512;-75
2022/07/24 15:39:24;;;;;;;8.55;5.20;;;;;;;31.33;32.23;100226.06;20822412;28;20060;-75
2022/07/24 15:49:25;;;;;;;10.88;5.20;;;;;;;31.36;32.02;100203.22;20851618;28;20162;-74
2022/07/24 15:59:27;;;;;;;7.90;4.90;;;;;;;31.34;33.25;100197.16;20986652;28;20056;-74
2022/07/24 16:09:28;;;;;;;7.75;5.25;;;;;;;31.30;32.45;100188.50;20930768;28;20053;-75
2022/07/24 16:19:29;;;;;;;7.95;5.10;;;;;;;31.75;33.03;100173.75;20964335;28;20063;-75
2022/07/24 16:29:31;;;;;;;9.05;5.50;;;;;;;31.98;31.83;100163.16;20906152;28;20067;-75
2022/07/24 16:39:32;;;;;;;7.10;5.95;;;;;;;32.43;31.61;100150.94;20945037;28;20055;-75
2022/07/24 16:49:43;;;;;;;7.40;5.40;;;;;;;31.88;31.69;100140.78;20892779;28;20055;-74
2022/07/24 16:59:44;;;;;;;8.93;5.45;;;;;;;31.77;31.94;100128.41;20891908;28;20053;-74
2022/07/24 17:09:46;;;;;;;12.80;8.73;;;;;;;32.09;31.50;100124.03;20894549;28;20051;-74
2022/07/24 17:19:47;;;;;;;7.70;5.80;;;;;;;32.28;32.21;100120.13;20974752;28;20401;-75
2022/07/24 17:29:49;;;;;;;6.83;5.70;;;;;;;32.13;32.14;100118.09;20986090;28;20455;-74
2022/07/24 17:39:50;;;;;;;6.10;4.78;;;;;;;31.57;31.75;100117.06;20989149;28;20052;-74
2022/07/24 17:49:51;;;;;;;8.68;5.47;;;;;;;31.33;33.07;100115.16;20956908;28;20053;-74
2022/07/24 17:59:53;;;;;;;7.70;5.78;;;;;;;31.16;33.69;100107.94;20917456;28;20045;-75
2022/07/24 18:09:54;;;;;;;7.30;5.85;;;;;;;31.04;35.03;100106.53;20911005;28;20442;-75
2022/07/24 18:19:56;;;;;;;8.07;5.00;;;;;;;30.71;35.59;100110.94;20847996;28;20414;-75
2022/07/24 18:29:57;;;;;;;6.78;5.10;;;;;;;30.32;37.56;100104.09;20819789;28;20056;-76
2022/07/24 18:39:59;;;;;;;7.20;5.18;;;;;;;29.60;40.52;100118.66;20899985;28;20053;-75
2022/07/24 18:50:00;;;;;;;8.23;5.63;;;;;;;28.94;45.39;100119.72;20901212;28;20045;-75
2022/07/24 19:00:02;;;;;;;8.18;5.22;;;;;;;28.31;46.36;100116.78;20953745;28;20422;-75
2022/07/24 19:10:03;;;;;;;8.48;5.55;;;;;;;27.85;50.15;100121.09;20962959;28;20041;-75
2022/07/24 19:20:04;;;;;;;7.13;5.40;;;;;;;27.33;50.54;100129.34;20911123;28;20060;-75
2022/07/24 19:30:06;;;;;;;8.68;5.97;;;;;;;26.94;52.73;100128.38;20938340;28;20139;-75
2022/07/24 19:40:07;;;;;;;8.02;6.05;;;;;;;26.75;54.08;100123.75;20907712;28;20053;-77
2022/07/24 19:50:09;;;;;;;9.30;5.80;;;;;;;26.48;53.65;100132.38;20942463;28;20045;-76
2022/07/24 20:00:10;;;;;;;7.82;6.05;;;;;;;26.31;56.72;100124.91;20948150;28;20680;-76
2022/07/24 20:10:11;;;;;;;8.77;5.97;;;;;;;25.95;59.59;100124.34;20901469;28;20055;-76
2022/07/24 20:20:13;;;;;;;9.40;6.68;;;;;;;25.77;58.90;100116.03;20950712;28;20049;-76
2022/07/24 20:30:15;;;;;;;7.85;6.22;;;;;;;25.32;58.71;100120.66;20892665;28;20049;-76
2022/07/24 20:40:16;;;;;;;7.28;5.60;;;;;;;25.08;59.97;100123.50;20892351;28;20052;-76
2022/07/24 20:50:18;;;;;;;7.47;6.03;;;;;;;24.83;61.03;100122.75;20892076;28;20136;-76
2022/07/24 21:00:19;;;;;;;9.77;6.07;;;;;;;24.62;64.36;100116.41;20898897;28;20681;-76
2022/07/24 21:10:20;;;;;;;8.10;5.68;;;;;;;24.41;67.83;100118.09;20925225;28;20052;-76
2022/07/24 21:20:22;;;;;;;9.13;6.90;;;;;;;24.36;66.56;100109.56;20991891;28;20198;-77
2022/07/24 21:30:23;;;;;;;10.13;6.63;;;;;;;24.08;70.47;100121.53;20978544;28;20040;-76
2022/07/24 21:40:24;;;;;;;11.45;6.82;;;;;;;23.73;74.73;100123.22;20945845;28;20075;-76
2022/07/24 21:50:26;;;;;;;8.77;6.75;;;;;;;23.44;79.01;100122.69;20944688;28;20144;-76
2022/07/24 22:00:27;;;;;;;9.73;7.72;;;;;;;23.26;81.42;100119.53;20941108;28;20488;-77
2022/07/24 22:10:29;;;;;;;10.90;8.65;;;;;;;23.17;81.99;100112.19;20951244;28;20045;-76
2022/07/24 22:20:30;;;;;;;9.00;7.38;;;;;;;22.94;86.13;100097.81;20950259;28;20041;-76
2022/07/24 22:30:32;;;;;;;10.07;8.07;;;;;;;22.50;89.59;100092.94;20925689;28;20508;-75
2022/07/24 22:40:33;;;;;;;10.75;8.00;;;;;;;22.41;91.13;100090.91;20981108;28;20051;-79
2022/07/24 22:50:34;;;;;;;10.60;8.20;;;;;;;22.22;90.89;100081.53;20983672;28;20053;-78
2022/07/24 23:00:36;;;;;;;14.00;7.90;;;;;;;21.89;95.25;100084.66;20992852;28;20044;-76
2022/07/24 23:10:38;;;;;;;11.90;8.32;;;;;;;21.68;96.04;100062.97;20993473;28;20527;-77
2022/07/24 23:20:40;;;;;;;10.02;7.50;;;;;;;21.73;95.82;100054.69;20988810;28;20052;-76
2022/07/24 23:30:41;;;;;;;8.80;7.55;;;;;;;21.61;95.75;100045.72;20988808;28;20419;-77
2022/07/24 23:40:42;;;;;;;13.07;8.48;;;;;;;21.66;94.00;100032.94;20988825;28;20052;-77
2022/07/24 23:50:44;;;;;;;9.32;7.70;;;;;;;21.66;96.64;100043.59;20988601;28;20062;-77
